Terminal Aerodrome Forecast
Issued by NWS

Home | Current Version | Previous Version | Text Only | Print | Product List | Glossary On
Versions: 1 2 3 4 5 6 7 8 9 10 11 12 13 14 15 16
000
FTUS44 KMAF 212300
TAFHOB
TAF
KHOB 212320Z 2200/2224 14007KT P6SM -SHRA FEW025 BKN080
     FM220800 14009KT P6SM BKN015
     FM221800 18007KT P6SM -SHRA BKN050=

USA.gov is the U.S. government's official web portal to all federal, state and local government web resources and services.